BFA weather

Boyne Mountain Airport
Boyne Falls, Michigan, United States

Public forecast

Using degrees Fahrenheit for public forecast. Weather courtesy of forecast.io.

METAR (pilot weather report)

Closest report is Gaylord Regional Airport, 13.1 nm (24.2 km) SE. Retrieved 2019/06/18 17:53 UTC (9 minutes ago):

KGLR 181753Z AUTO 30006KT 10SM FEW036 OVC100 22/13 A2994 RMK AO2 SLP135 T02170128 10217 20133 58008 $

TAF (pilot weather forecast)

Closest forecast is Pellston Regional Airport of Emmet County Airport, 24.9 nm (46.1 km) NNE. Retrieved 2019/06/18 18:57 UTC (0 seconds ago):

TAF COR KPLN 181753Z 1818/1918 VRB03KT P6SM BKN100 FM190400 00000KT P6SM OVC050 FM190700 00000KT P6SM BKN024 FM190800 VRB03KT P6SM BKN010 FM190900 VRB03KT 4SM BR BKN005 FM191200 VRB03KT P6SM BKN010 FM191600 06005KT P6SM BKN025